Terminal Aerodrome Forecast
Issued by NWS Pocatello, ID

Home | Current Version | Previous Version | Text Only | Print | Product List | Glossary On
Versions: 1 2 3 4 5 6 7 8 9 10 11 12 13 14 15 16 17 18 19 20 21 22 23 24 25 26 27
000
FTUS45 KPIH 200300 AAB
TAFPIH
TAF AMD
KPIH 200300Z 2003/2024 25015KT P6SM VCSH BKN025 OVC090
     FM200800 22008KT P6SM -RASN BKN008 OVC015
     FM201300 18008KT P6SM SCT008 OVC015
     FM201800 21010KT P6SM SCT025 BKN050 OVC080=

USA.gov is the U.S. government's official web portal to all federal, state and local government web resources and services.